createdAt,value
2018-12-08T00:00:42.295Z,19.10
2018-12-08T00:03:11.153Z,19.00
2018-12-08T00:05:39.471Z,18.90
2018-12-08T00:08:07.839Z,18.90
2018-12-08T00:10:36.225Z,18.80
2018-12-08T00:13:05.121Z,18.70
2018-12-08T00:15:33.761Z,18.60
2018-12-08T00:18:02.093Z,18.60
2018-12-08T00:20:30.501Z,18.50
2018-12-08T00:22:58.895Z,18.50
2018-12-08T00:25:27.273Z,18.40
2018-12-08T00:27:55.705Z,18.40
2018-12-08T00:33:25.137Z,18.30
2018-12-08T00:35:53.782Z,18.20
2018-12-08T00:38:22.167Z,18.10
2018-12-08T00:40:50.592Z,18.10
2018-12-08T00:43:19.009Z,18.00
2018-12-08T00:45:47.661Z,18.00
2018-12-08T00:48:16.099Z,18.00
2018-12-08T00:50:44.516Z,17.90
2018-12-08T00:53:13.155Z,17.90
2018-12-08T00:55:41.901Z,17.80
2018-12-08T00:58:10.273Z,17.80
2018-12-08T01:00:38.700Z,17.80
2018-12-08T01:03:07.086Z,17.70
2018-12-08T01:05:35.459Z,17.70
2018-12-08T01:08:04.118Z,17.70
2018-12-08T01:10:32.802Z,17.60
2018-12-08T01:13:01.265Z,17.60
2018-12-08T01:15:29.631Z,17.50
2018-12-08T01:17:58.279Z,17.50
2018-12-08T01:20:26.740Z,17.50
2018-12-08T01:22:55.201Z,17.50
2018-12-08T01:25:24.807Z,17.40
2018-12-08T01:27:53.455Z,17.40
2018-12-08T01:30:21.794Z,17.40
2018-12-08T01:32:50.263Z,17.40
2018-12-08T01:35:19.121Z,17.30
2018-12-08T01:37:47.709Z,17.30
2018-12-08T01:40:16.097Z,17.30
2018-12-08T01:42:46.506Z,17.30
2018-12-08T01:45:14.878Z,17.20
2018-12-08T01:47:43.254Z,17.20
2018-12-08T01:50:11.642Z,17.20
2018-12-08T01:52:40.050Z,17.20
2018-12-08T01:55:08.478Z,17.20
2018-12-08T01:57:37.207Z,17.10
2018-12-08T02:00:06.784Z,17.10
2018-12-08T02:02:35.447Z,17.10
2018-12-08T02:05:04.522Z,17.10
2018-12-08T02:07:32.967Z,17.10
2018-12-08T02:10:01.221Z,17.00
2018-12-08T02:12:29.619Z,17.00
2018-12-08T02:14:58.055Z,17.00
2018-12-08T02:17:26.513Z,17.00
2018-12-08T02:19:55.146Z,17.00
2018-12-08T02:22:23.556Z,17.00
2018-12-08T02:24:51.986Z,17.00
2018-12-08T02:27:20.409Z,16.90
2018-12-08T02:29:48.790Z,16.90
2018-12-08T02:32:17.185Z,16.90
2018-12-08T02:34:45.642Z,16.90
2018-12-08T02:37:14.058Z,16.90
2018-12-08T02:39:42.498Z,16.80
2018-12-08T02:42:10.940Z,16.80
2018-12-08T02:44:39.253Z,16.80
2018-12-08T02:47:07.621Z,16.80
2018-12-08T02:49:36.030Z,16.80
2018-12-08T02:52:04.682Z,16.80
2018-12-08T02:54:33.222Z,16.80
2018-12-08T02:57:01.651Z,16.80
2018-12-08T02:59:30.017Z,16.70
2018-12-08T03:01:58.395Z,16.70
2018-12-08T03:04:27.703Z,16.70
2018-12-08T03:06:56.097Z,16.70
2018-12-08T03:09:24.489Z,16.70
2018-12-08T03:11:52.893Z,16.70
2018-12-08T03:14:21.295Z,16.70
2018-12-08T03:16:49.653Z,16.60
2018-12-08T03:19:17.949Z,16.60
2018-12-08T03:21:46.477Z,16.60
2018-12-08T03:24:15.116Z,16.60
2018-12-08T03:26:43.433Z,16.60
2018-12-08T03:29:12.095Z,16.60
2018-12-08T03:31:40.806Z,16.60
2018-12-08T03:34:09.301Z,16.60
2018-12-08T03:36:37.758Z,16.50
2018-12-08T03:39:07.374Z,16.50
2018-12-08T03:41:36.015Z,16.50
2018-12-08T03:44:04.448Z,16.50
2018-12-08T03:46:32.941Z,16.50
2018-12-08T03:49:01.526Z,16.50
2018-12-08T03:51:29.937Z,16.50
2018-12-08T03:53:58.605Z,16.50
2018-12-08T03:56:26.986Z,16.40
2018-12-08T03:58:55.358Z,16.40
2018-12-08T04:01:23.808Z,16.40
2018-12-08T04:03:52.206Z,16.40
2018-12-08T04:06:20.815Z,16.40
2018-12-08T04:08:49.264Z,16.40
2018-12-08T04:11:17.685Z,16.40
2018-12-08T04:13:46.067Z,16.30
2018-12-08T04:16:14.517Z,16.30
2018-12-08T04:18:42.951Z,16.30
2018-12-08T04:21:11.676Z,16.30
2018-12-08T04:23:40.306Z,16.30
2018-12-08T04:26:08.683Z,16.30
2018-12-08T04:28:37.089Z,16.30
2018-12-08T04:31:05.515Z,16.20
2018-12-08T04:33:34.122Z,16.20
2018-12-08T04:36:02.522Z,16.20
2018-12-08T04:38:31.167Z,16.20
2018-12-08T04:40:59.819Z,16.20
2018-12-08T04:43:28.197Z,16.20
2018-12-08T04:45:56.587Z,16.20
2018-12-08T04:48:24.978Z,16.20
2018-12-08T04:50:53.269Z,16.20
2018-12-08T04:53:21.890Z,16.20
2018-12-08T04:55:50.547Z,16.10
2018-12-08T04:58:19.029Z,16.10
2018-12-08T05:00:47.416Z,16.10
2018-12-08T05:03:15.828Z,16.10
2018-12-08T05:05:44.262Z,16.10
2018-12-08T05:08:12.633Z,16.10
2018-12-08T05:10:41.135Z,16.10
2018-12-08T05:13:09.760Z,16.00
2018-12-08T05:15:38.203Z,16.00
2018-12-08T05:18:06.498Z,16.00
2018-12-08T05:20:34.974Z,16.00
2018-12-08T05:23:03.592Z,16.00
2018-12-08T05:25:32.252Z,16.00
2018-12-08T05:28:00.660Z,16.00
2018-12-08T05:30:29.031Z,16.00
2018-12-08T05:32:57.433Z,16.00
2018-12-08T05:35:25.837Z,16.00
2018-12-08T05:37:54.177Z,15.90
2018-12-08T05:40:22.582Z,15.90
2018-12-08T05:42:51.247Z,15.90
2018-12-08T05:45:19.646Z,15.90
2018-12-08T05:47:48.280Z,15.90
2018-12-08T05:50:16.643Z,15.90
2018-12-08T05:52:44.997Z,15.90
2018-12-08T05:55:13.397Z,15.90
2018-12-08T05:57:41.755Z,15.80
2018-12-08T06:00:10.200Z,15.80
2018-12-08T06:02:38.584Z,15.80
2018-12-08T06:05:07.050Z,15.80
2018-12-08T06:07:35.501Z,15.80
2018-12-08T06:10:05.221Z,15.80
2018-12-08T06:12:33.699Z,15.80
2018-12-08T06:15:02.089Z,15.70
2018-12-08T06:17:30.493Z,15.80
2018-12-08T06:19:58.911Z,15.70
2018-12-08T06:22:28.268Z,15.70
2018-12-08T06:24:56.649Z,15.70
2018-12-08T06:27:25.079Z,15.70
2018-12-08T06:29:53.490Z,15.70
2018-12-08T06:32:21.928Z,15.70
2018-12-08T06:34:50.470Z,15.60
2018-12-08T06:37:18.753Z,15.60
2018-12-08T06:39:47.167Z,15.60
2018-12-08T06:42:15.601Z,15.60
2018-12-08T06:44:43.965Z,15.60
2018-12-08T06:47:12.415Z,15.60
2018-12-08T06:49:42.979Z,15.60
2018-12-08T06:52:11.613Z,15.60
2018-12-08T06:54:40.056Z,15.60
2018-12-08T06:57:08.425Z,15.60
2018-12-08T06:59:36.869Z,15.60
2018-12-08T07:02:05.455Z,15.60
2018-12-08T07:04:34.361Z,15.60
2018-12-08T07:07:02.788Z,15.50
2018-12-08T07:09:31.246Z,15.50
2018-12-08T07:12:00.010Z,15.50
2018-12-08T07:14:28.410Z,15.50
2018-12-08T07:16:57.065Z,15.50
2018-12-08T07:19:25.535Z,15.50
2018-12-08T07:21:53.914Z,15.50
2018-12-08T07:24:22.298Z,15.50
2018-12-08T07:26:50.829Z,15.50
2018-12-08T07:29:19.291Z,15.50
2018-12-08T07:31:47.707Z,15.50
2018-12-08T07:34:16.109Z,15.60
2018-12-08T07:36:44.528Z,15.60
2018-12-08T07:39:12.868Z,15.60
2018-12-08T07:41:41.492Z,15.70
2018-12-08T07:44:10.941Z,15.70
2018-12-08T07:46:39.659Z,15.70
2018-12-08T07:49:08.110Z,15.70
2018-12-08T07:51:36.578Z,15.70
2018-12-08T07:54:05.607Z,15.70
2018-12-08T07:56:34.158Z,15.70
2018-12-08T07:59:03.187Z,15.70
2018-12-08T08:01:31.940Z,15.70
2018-12-08T08:04:00.676Z,15.70
2018-12-08T08:06:29.167Z,15.60
2018-12-08T08:08:57.981Z,15.60
2018-12-08T08:11:26.647Z,15.60
2018-12-08T08:13:55.195Z,15.70
2018-12-08T08:16:23.855Z,15.70
2018-12-08T08:18:52.761Z,15.70
2018-12-08T08:21:21.571Z,15.80
2018-12-08T08:23:50.168Z,15.90
2018-12-08T08:26:18.753Z,15.90
2018-12-08T08:28:47.376Z,16.00
2018-12-08T08:31:16.008Z,16.00
2018-12-08T08:33:44.721Z,16.00
2018-12-08T08:36:13.770Z,16.00
2018-12-08T08:38:42.572Z,16.00
2018-12-08T08:41:11.406Z,16.00
2018-12-08T08:43:39.862Z,16.00
2018-12-08T08:46:08.357Z,16.00
2018-12-08T08:48:38.353Z,15.90
2018-12-08T08:51:08.109Z,15.90
2018-12-08T08:53:38.654Z,15.90
2018-12-08T08:56:07.530Z,15.90
2018-12-08T08:58:36.095Z,15.90
2018-12-08T09:01:04.714Z,15.90
2018-12-08T09:03:33.979Z,16.10
2018-12-08T09:06:03.336Z,16.30
2018-12-08T09:08:32.057Z,16.60
2018-12-08T09:11:01.007Z,16.80
2018-12-08T09:13:29.514Z,16.80
2018-12-08T09:15:57.854Z,16.80
2018-12-08T09:18:26.247Z,16.80
2018-12-08T09:20:54.751Z,16.70
2018-12-08T09:23:23.719Z,16.70
2018-12-08T09:25:52.820Z,16.60
2018-12-08T09:28:21.907Z,16.60
2018-12-08T09:30:50.677Z,16.50
2018-12-08T09:33:19.219Z,16.50
2018-12-08T09:35:48.042Z,16.60
2018-12-08T09:38:16.570Z,16.50
2018-12-08T09:40:45.023Z,16.50
2018-12-08T09:43:13.549Z,16.50
2018-12-08T09:45:42.392Z,16.50
2018-12-08T09:48:11.355Z,16.50
2018-12-08T09:50:39.971Z,16.50
2018-12-08T09:53:15.671Z,16.50
2018-12-08T09:55:44.320Z,16.50
2018-12-08T09:58:13.074Z,16.40
2018-12-08T10:00:41.837Z,16.40
2018-12-08T10:03:10.491Z,16.70
2018-12-08T10:05:38.918Z,17.00
2018-12-08T10:08:07.368Z,17.30
2018-12-08T10:10:35.984Z,17.40
2018-12-08T10:13:04.391Z,17.50
2018-12-08T10:15:32.912Z,17.50
2018-12-08T10:18:01.316Z,17.50
2018-12-08T10:20:29.735Z,17.50
2018-12-08T10:23:01.088Z,17.50
2018-12-08T10:25:30.517Z,17.50
2018-12-08T10:27:58.977Z,17.40
2018-12-08T10:30:27.534Z,17.30
2018-12-08T10:32:56.243Z,17.20
2018-12-08T10:35:24.587Z,17.20
2018-12-08T10:37:53.032Z,17.10
2018-12-08T10:40:21.458Z,17.00
2018-12-08T10:42:49.830Z,17.00
2018-12-08T10:45:18.537Z,16.90
2018-12-08T10:47:46.994Z,16.90
2018-12-08T10:50:15.381Z,16.80
2018-12-08T10:52:43.870Z,16.80
2018-12-08T10:55:12.671Z,16.80
2018-12-08T10:57:41.359Z,16.80
2018-12-08T11:00:12.015Z,16.70
2018-12-08T11:02:40.469Z,16.70
2018-12-08T11:05:08.945Z,16.70
2018-12-08T11:07:37.374Z,16.70
2018-12-08T11:10:06.327Z,16.70
2018-12-08T11:12:35.039Z,16.60
2018-12-08T11:15:04.079Z,16.60
2018-12-08T11:17:32.449Z,16.60
2018-12-08T11:20:00.847Z,16.60
2018-12-08T11:22:29.299Z,16.60
2018-12-08T11:24:57.665Z,16.60
2018-12-08T11:27:26.397Z,16.50
2018-12-08T11:29:54.699Z,16.50
2018-12-08T11:32:23.098Z,16.50
2018-12-08T11:34:51.401Z,16.50
2018-12-08T11:37:20.010Z,16.40
2018-12-08T11:39:48.802Z,16.60
2018-12-08T11:42:17.195Z,16.80
2018-12-08T11:44:45.983Z,17.10
2018-12-08T11:47:14.471Z,17.40
2018-12-08T11:49:43.784Z,17.60
2018-12-08T11:52:12.243Z,17.30
2018-12-08T11:54:40.661Z,17.00
2018-12-08T11:57:10.331Z,16.80
2018-12-08T11:59:38.965Z,16.50
2018-12-08T12:02:07.372Z,16.30
2018-12-08T12:04:36.072Z,16.00
2018-12-08T12:07:04.491Z,15.60
2018-12-08T12:09:33.006Z,15.40
2018-12-08T12:12:01.382Z,15.40
2018-12-08T12:14:43.000Z,15.30
2018-12-08T12:17:11.475Z,15.30
2018-12-08T12:19:39.867Z,15.20
2018-12-08T12:22:08.394Z,15.20
2018-12-08T12:24:36.864Z,15.20
2018-12-08T12:27:05.386Z,15.00
2018-12-08T12:29:33.923Z,14.90
2018-12-08T12:32:02.474Z,14.70
2018-12-08T12:34:31.258Z,14.60
2018-12-08T12:36:59.717Z,14.50
2018-12-08T12:39:28.464Z,14.50
2018-12-08T12:41:56.890Z,14.30
2018-12-08T12:44:25.632Z,14.10
2018-12-08T12:46:54.063Z,13.80
2018-12-08T12:49:22.430Z,13.70
2018-12-08T12:51:50.865Z,13.70
2018-12-08T12:54:19.613Z,13.70
2018-12-08T12:56:48.118Z,13.70
2018-12-08T12:59:16.586Z,13.60
2018-12-08T13:01:45.176Z,13.50
2018-12-08T13:04:13.723Z,13.40
2018-12-08T13:06:42.340Z,13.50
2018-12-08T13:09:10.749Z,13.50
2018-12-08T13:11:39.758Z,13.50
2018-12-08T13:14:08.168Z,13.40
2018-12-08T13:16:36.568Z,13.40
2018-12-08T13:19:05.246Z,13.40
2018-12-08T13:21:33.931Z,13.30
2018-12-08T13:24:02.370Z,13.30
2018-12-08T13:26:30.773Z,13.10
2018-12-08T13:28:59.295Z,13.10
2018-12-08T13:31:27.703Z,13.10
2018-12-08T13:33:56.085Z,13.10
2018-12-08T13:36:24.918Z,13.10
2018-12-08T13:38:53.723Z,13.10
2018-12-08T13:41:22.144Z,13.10
2018-12-08T13:43:52.412Z,13.00
2018-12-08T13:46:20.792Z,13.00
2018-12-08T13:48:49.226Z,13.00
2018-12-08T13:51:18.159Z,12.90
2018-12-08T13:53:46.840Z,12.90
2018-12-08T13:56:15.220Z,13.00
2018-12-08T13:58:43.910Z,13.00
2018-12-08T14:01:12.273Z,13.00
2018-12-08T14:03:40.667Z,13.00
2018-12-08T14:06:09.194Z,12.90
2018-12-08T14:08:37.547Z,12.80
2018-12-08T14:11:05.987Z,12.70
2018-12-08T14:13:34.792Z,12.60
2018-12-08T14:16:03.494Z,12.40
2018-12-08T14:18:32.164Z,12.40
2018-12-08T14:21:00.534Z,12.40
2018-12-08T14:23:29.235Z,12.40
2018-12-08T14:25:57.906Z,12.40
2018-12-08T14:28:26.474Z,12.50
2018-12-08T14:30:54.894Z,12.50
2018-12-08T14:33:23.529Z,12.50
2018-12-08T14:35:52.023Z,12.50
2018-12-08T14:38:20.448Z,12.50
2018-12-08T14:40:48.886Z,12.60
2018-12-08T14:43:17.463Z,12.60
2018-12-08T14:45:45.894Z,12.70
2018-12-08T14:48:14.510Z,12.70
2018-12-08T14:50:42.958Z,12.70
2018-12-08T14:53:13.862Z,12.60
2018-12-08T14:55:44.535Z,12.50
2018-12-08T14:58:12.980Z,12.50
2018-12-08T15:00:41.386Z,12.40
2018-12-08T15:03:10.055Z,12.40
2018-12-08T15:05:39.232Z,12.50
2018-12-08T15:08:08.353Z,12.40
2018-12-08T15:10:37.403Z,12.40
2018-12-08T15:13:06.414Z,12.40
2018-12-08T15:15:35.304Z,12.30
2018-12-08T15:18:03.760Z,12.20
2018-12-08T15:20:32.152Z,12.20
2018-12-08T15:23:00.634Z,12.30
2018-12-08T15:25:29.073Z,12.40
2018-12-08T15:27:58.754Z,12.40
2018-12-08T15:30:27.429Z,12.40
2018-12-08T15:32:55.921Z,12.50
2018-12-08T15:35:24.574Z,12.50
2018-12-08T15:37:53.139Z,12.60
2018-12-08T15:40:21.562Z,12.60
2018-12-08T15:42:50.238Z,12.70
2018-12-08T15:45:18.769Z,12.70
2018-12-08T15:47:47.306Z,12.70
2018-12-08T15:50:16.194Z,12.70
2018-12-08T15:52:44.962Z,12.70
2018-12-08T15:55:15.122Z,12.80
2018-12-08T15:57:43.518Z,12.70
2018-12-08T16:00:13.240Z,12.70
2018-12-08T16:02:41.737Z,12.70
2018-12-08T16:05:10.472Z,12.90
2018-12-08T16:07:39.225Z,12.90
2018-12-08T16:10:09.060Z,12.80
2018-12-08T16:12:37.746Z,12.80
2018-12-08T16:15:06.653Z,12.70
2018-12-08T16:17:35.192Z,12.60
2018-12-08T16:20:06.304Z,12.50
2018-12-08T16:22:35.032Z,12.50
2018-12-08T16:25:04.082Z,12.50
2018-12-08T16:27:32.830Z,12.50
2018-12-08T16:30:03.505Z,12.60
2018-12-08T16:32:32.774Z,12.60
2018-12-08T16:35:01.459Z,12.60
2018-12-08T16:37:30.034Z,12.70
2018-12-08T16:39:58.503Z,12.70
2018-12-08T16:42:27.148Z,12.60
2018-12-08T16:44:55.921Z,12.60
2018-12-08T16:47:24.666Z,12.60
2018-12-08T16:49:54.942Z,12.50
2018-12-08T16:52:30.131Z,12.50
2018-12-08T16:55:00.813Z,12.50
2018-12-08T16:57:29.258Z,12.30
2018-12-08T16:59:57.772Z,12.30
2018-12-08T17:02:26.166Z,12.40
2018-12-08T17:04:54.576Z,12.50
2018-12-08T17:07:23.114Z,12.50
2018-12-08T17:09:52.373Z,12.50
2018-12-08T17:12:20.972Z,12.50
2018-12-08T17:14:49.481Z,12.40
2018-12-08T17:17:17.905Z,12.30
2018-12-08T17:19:46.522Z,12.40
2018-12-08T17:22:15.155Z,12.30
2018-12-08T17:24:43.651Z,12.40
2018-12-08T17:27:12.114Z,12.60
2018-12-08T17:29:40.564Z,12.60
2018-12-08T17:32:09.065Z,12.60
2018-12-08T17:34:37.892Z,12.60
2018-12-08T17:37:06.861Z,12.60
2018-12-08T17:39:35.352Z,12.60
2018-12-08T17:42:04.055Z,12.70
2018-12-08T17:44:32.471Z,12.70
2018-12-08T17:47:00.935Z,12.80
2018-12-08T17:49:29.590Z,12.80
2018-12-08T17:51:58.882Z,12.70
2018-12-08T17:54:27.254Z,12.60
2018-12-08T17:56:55.719Z,12.50
2018-12-08T17:59:24.024Z,12.40
2018-12-08T18:01:53.111Z,12.50
2018-12-08T18:04:21.763Z,12.40
2018-12-08T18:06:50.169Z,12.50
2018-12-08T18:09:18.760Z,12.50
2018-12-08T18:11:47.237Z,12.50
2018-12-08T18:14:15.641Z,12.50
2018-12-08T18:16:44.069Z,12.40
2018-12-08T18:19:12.517Z,12.30
2018-12-08T18:21:41.042Z,12.30
2018-12-08T18:24:09.621Z,12.30
2018-12-08T18:26:38.058Z,12.30
2018-12-08T18:29:06.730Z,12.30
2018-12-08T18:31:35.140Z,12.30
2018-12-08T18:34:03.621Z,12.30
2018-12-08T18:36:32.141Z,12.30
2018-12-08T18:39:00.578Z,12.30
2018-12-08T18:41:29.018Z,12.30
2018-12-08T18:43:57.499Z,12.40
2018-12-08T18:46:26.051Z,12.50
2018-12-08T18:48:54.507Z,12.50
2018-12-08T18:51:22.941Z,12.50
2018-12-08T18:53:51.360Z,12.40
2018-12-08T18:56:19.836Z,12.40
2018-12-08T18:58:48.246Z,12.40
2018-12-08T19:01:16.674Z,12.40
2018-12-08T19:03:45.106Z,12.40
2018-12-08T19:06:13.628Z,12.40
2018-12-08T19:08:42.156Z,12.40
2018-12-08T19:11:10.853Z,12.40
2018-12-08T19:13:39.283Z,12.40
2018-12-08T19:16:07.699Z,12.40
2018-12-08T19:18:36.457Z,12.50
2018-12-08T19:21:05.220Z,12.50
2018-12-08T19:23:34.073Z,12.60
2018-12-08T19:26:02.690Z,12.60
2018-12-08T19:28:31.148Z,12.70
2018-12-08T19:30:59.632Z,13.00
2018-12-08T19:33:28.253Z,13.10
2018-12-08T19:35:57.027Z,13.20
2018-12-08T19:38:25.407Z,13.40
2018-12-08T19:40:53.791Z,13.40
2018-12-08T19:43:24.232Z,13.50
2018-12-08T19:45:52.645Z,13.60
2018-12-08T19:48:21.420Z,13.40
2018-12-08T19:50:49.886Z,13.40
2018-12-08T19:53:18.339Z,13.20
2018-12-08T19:55:46.780Z,13.00
2018-12-08T19:58:15.221Z,12.90
2018-12-08T20:00:43.849Z,12.80
2018-12-08T20:03:14.194Z,12.80
2018-12-08T20:05:42.697Z,12.80
2018-12-08T20:08:11.100Z,12.80
2018-12-08T20:10:39.575Z,12.60
2018-12-08T20:13:08.107Z,12.60
2018-12-08T20:15:36.498Z,12.60
2018-12-08T20:18:05.000Z,12.50
2018-12-08T20:20:33.411Z,12.50
2018-12-08T20:23:01.894Z,12.50
2018-12-08T20:25:30.385Z,12.50
2018-12-08T20:27:59.029Z,12.50
2018-12-08T20:30:27.916Z,12.50
2018-12-08T20:32:56.765Z,12.60
2018-12-08T20:35:25.160Z,12.70
2018-12-08T20:37:53.747Z,12.70
2018-12-08T20:40:22.300Z,12.90
2018-12-08T20:42:50.811Z,12.90
2018-12-08T20:45:19.303Z,13.00
2018-12-08T20:47:47.742Z,13.00
2018-12-08T20:50:16.195Z,13.10
2018-12-08T20:52:44.649Z,13.10
2018-12-08T20:55:13.063Z,13.00
2018-12-08T20:57:41.489Z,12.90
2018-12-08T21:00:09.923Z,12.90
2018-12-08T21:02:38.673Z,12.90
2018-12-08T21:05:07.093Z,12.80
2018-12-08T21:07:35.854Z,12.90
2018-12-08T21:10:05.966Z,12.80
2018-12-08T21:12:35.343Z,12.90
2018-12-08T21:15:04.936Z,12.90
2018-12-08T21:17:33.383Z,12.90
2018-12-08T21:20:01.825Z,12.80
2018-12-08T21:22:30.274Z,12.70
2018-12-08T21:24:58.895Z,12.60
2018-12-08T21:27:27.305Z,12.50
2018-12-08T21:29:55.758Z,12.50
2018-12-08T21:32:24.173Z,12.60
2018-12-08T21:34:52.606Z,12.50
2018-12-08T21:37:21.984Z,12.40
2018-12-08T21:39:50.557Z,12.30
2018-12-08T21:42:18.959Z,12.30
2018-12-08T21:44:47.317Z,12.30
2018-12-08T21:47:15.980Z,12.30
2018-12-08T21:49:44.415Z,12.30
2018-12-08T21:52:12.872Z,12.30
2018-12-08T21:54:41.260Z,11.80
2018-12-08T21:57:09.824Z,11.30
2018-12-08T21:59:38.254Z,10.80
2018-12-08T22:02:06.660Z,10.20
2018-12-08T22:04:35.200Z,10.00
2018-12-08T22:07:03.886Z,10.10
2018-12-08T22:09:32.465Z,10.30
2018-12-08T22:12:00.892Z,10.40
2018-12-08T22:14:29.459Z,10.50
2018-12-08T22:16:58.014Z,10.60
2018-12-08T22:19:26.414Z,10.60
2018-12-08T22:21:54.781Z,10.80
2018-12-08T22:24:23.194Z,10.90
2018-12-08T22:26:51.632Z,11.00
2018-12-08T22:29:20.081Z,11.00
2018-12-08T22:31:48.888Z,11.00
2018-12-08T22:34:17.672Z,11.10
2018-12-08T22:36:56.685Z,11.10
2018-12-08T22:39:26.950Z,11.20
2018-12-08T22:41:55.369Z,11.30
2018-12-08T22:44:23.822Z,11.30
2018-12-08T22:46:53.407Z,11.30
2018-12-08T22:49:21.807Z,11.20
2018-12-08T22:51:50.674Z,11.20
2018-12-08T22:54:19.189Z,11.30
2018-12-08T22:56:47.742Z,11.40
2018-12-08T22:59:16.487Z,11.40
2018-12-08T23:01:45.935Z,11.50
2018-12-08T23:04:14.407Z,11.50
2018-12-08T23:06:46.646Z,11.30
2018-12-08T23:09:15.028Z,11.40
2018-12-08T23:11:43.508Z,11.40
2018-12-08T23:14:11.898Z,11.40
2018-12-08T23:16:40.393Z,11.40
2018-12-08T23:19:08.827Z,11.40
2018-12-08T23:21:37.244Z,11.40
2018-12-08T23:24:05.747Z,11.50
2018-12-08T23:26:34.302Z,11.50
2018-12-08T23:29:03.316Z,11.50
2018-12-08T23:31:31.808Z,11.50
2018-12-08T23:34:00.580Z,11.40
2018-12-08T23:36:29.026Z,11.40
2018-12-08T23:38:57.423Z,11.40
2018-12-08T23:41:25.796Z,11.50
2018-12-08T23:43:54.509Z,11.50
2018-12-08T23:46:22.992Z,11.60
2018-12-08T23:48:51.589Z,11.60
2018-12-08T23:51:20.089Z,11.50
2018-12-08T23:53:48.747Z,11.50
2018-12-08T23:56:17.361Z,11.60
2018-12-08T23:58:46.111Z,11.60
